CUL136 YSRI-YSNF
Flight info
| Callsign | CUL136 |
|---|---|
| Flight time | 3h 9m |
| Altitude | 27000 |
| Route | KADOM A576 TESAT B450 NOBAR DCT ABARB DCT LHI DCT TEKEP DCT NF |
| Aircraft | C130/M-SDE2E3FGRY/H |
Departure
| Time | 2026-05-04 00:17 |
|---|---|
| Airport | RAAF Base Richmond (YSRI) |
Arrival
| Time | 2026-05-04 03:27 |
|---|---|
| Airport | Norfolk Island International Airport (YSNF) |
| Time | Latitude | Longitude | Altitude | Speed | Heading |
|---|---|---|---|---|---|
| 2026-05-03 23:51 | -33.60118 | 150.78191 | 73 ft | 0 kts | 236° |
| 2026-05-04 00:08 | -33.60105 | 150.78211 | 64 ft | 7 kts | 224° |
| 2026-05-04 00:08 | -33.60106 | 150.78211 | 65 ft | 1 kts | 203° |
| 2026-05-04 00:08 | -33.60118 | 150.78215 | 70 ft | 4 kts | 156° |
| 2026-05-04 00:08 | -33.60153 | 150.78244 | 66 ft | 8 kts | 146° |
| 2026-05-04 00:09 | -33.60174 | 150.78256 | 63 ft | 3 kts | 160° |
| 2026-05-04 00:09 | -33.60204 | 150.78263 | 68 ft | 5 kts | 179° |
| 2026-05-04 00:09 | -33.60243 | 150.78252 | 66 ft | 6 kts | 201° |
| 2026-05-04 00:09 | -33.60288 | 150.78228 | 68 ft | 8 kts | 213° |
| 2026-05-04 00:10 | -33.60311 | 150.78179 | 69 ft | 7 kts | 262° |
| 2026-05-04 00:10 | -33.60303 | 150.78122 | 71 ft | 7 kts | 287° |
| 2026-05-04 00:10 | -33.60289 | 150.78071 | 71 ft | 6 kts | 287° |
| 2026-05-04 00:10 | -33.60276 | 150.78017 | 65 ft | 7 kts | 288° |
| 2026-05-04 00:11 | -33.60261 | 150.77962 | 73 ft | 7 kts | 286° |
| 2026-05-04 00:11 | -33.60245 | 150.77903 | 73 ft | 8 kts | 287° |
| 2026-05-04 00:11 | -33.60230 | 150.77842 | 75 ft | 8 kts | 288° |
| 2026-05-04 00:11 | -33.60214 | 150.77779 | 70 ft | 8 kts | 287° |
| 2026-05-04 00:12 | -33.60202 | 150.77734 | 66 ft | 9 kts | 285° |
| 2026-05-04 00:12 | -33.60185 | 150.77666 | 70 ft | 9 kts | 287° |
| 2026-05-04 00:12 | -33.60167 | 150.77597 | 72 ft | 9 kts | 287° |
| 2026-05-04 00:12 | -33.60142 | 150.77503 | 72 ft | 8 kts | 283° |
| 2026-05-04 00:13 | -33.60136 | 150.77457 | 77 ft | 8 kts | 271° |
| 2026-05-04 00:13 | -33.60129 | 150.77417 | 70 ft | 5 kts | 294° |
| 2026-05-04 00:13 | -33.60103 | 150.77354 | 71 ft | 11 kts | 295° |
| 2026-05-04 00:13 | -33.60071 | 150.77253 | 76 ft | 14 kts | 280° |
| 2026-05-04 00:14 | -33.60072 | 150.77200 | 79 ft | 3 kts | 247° |
| 2026-05-04 00:14 | -33.60091 | 150.77173 | 82 ft | 2 kts | 214° |
| 2026-05-04 00:14 | -33.60095 | 150.77170 | 83 ft | 0 kts | 209° |
| 2026-05-04 00:15 | -33.60120 | 150.77159 | 82 ft | 5 kts | 190° |
| 2026-05-04 00:16 | -33.60152 | 150.77167 | 82 ft | 8 kts | 151° |
| 2026-05-04 00:16 | -33.60187 | 150.77226 | 72 ft | 12 kts | 108° |
| 2026-05-04 00:16 | -33.60224 | 150.77363 | 77 ft | 21 kts | 108° |
| 2026-05-04 00:16 | -33.60279 | 150.77576 | 70 ft | 50 kts | 107° |
| 2026-05-04 00:17 | -33.60364 | 150.77900 | 70 ft | 32 kts | 108° |
| 2026-05-04 00:17 | -33.60453 | 150.78247 | 72 ft | 88 kts | 107° |
| 2026-05-04 00:17 | -33.60705 | 150.79256 | 267 ft | 147 kts | 109° |
| 2026-05-04 00:17 | -33.61028 | 150.80497 | 772 ft | 174 kts | 108° |
| 2026-05-04 00:18 | -33.61448 | 150.82012 | 1015 ft | 202 kts | 106° |
| 2026-05-04 00:18 | -33.61910 | 150.83663 | 1369 ft | 216 kts | 112° |
| 2026-05-04 00:18 | -33.62833 | 150.85108 | 1702 ft | 229 kts | 143° |
| 2026-05-04 00:18 | -33.64351 | 150.85804 | 1858 ft | 244 kts | 182° |
| 2026-05-04 00:19 | -33.65858 | 150.85153 | 1931 ft | 224 kts | 228° |
| 2026-05-04 00:19 | -33.66460 | 150.83667 | 2278 ft | 189 kts | 276° |
| 2026-05-04 00:19 | -33.66286 | 150.81992 | 2339 ft | 216 kts | 283° |
| 2026-05-04 00:19 | -33.65859 | 150.80242 | 2752 ft | 217 kts | 292° |
| 2026-05-04 00:20 | -33.65339 | 150.78517 | 3076 ft | 226 kts | 293° |
| 2026-05-04 00:20 | -33.64841 | 150.76657 | 3232 ft | 238 kts | 290° |
| 2026-05-04 00:20 | -33.64391 | 150.74857 | 4067 ft | 219 kts | 291° |
| 2026-05-04 00:20 | -33.63917 | 150.73101 | 4447 ft | 228 kts | 292° |
| 2026-05-04 00:21 | -33.63377 | 150.71213 | 4372 ft | 250 kts | 286° |
| 2026-05-04 00:21 | -33.63225 | 150.69167 | 5140 ft | 236 kts | 271° |
| 2026-05-04 00:21 | -33.63761 | 150.67357 | 6188 ft | 236 kts | 245° |
| 2026-05-04 00:21 | -33.64809 | 150.65754 | 6509 ft | 258 kts | 236° |
| 2026-05-04 00:22 | -33.65617 | 150.63830 | 6534 ft | 264 kts | 265° |
| 2026-05-04 00:22 | -33.66087 | 150.61630 | 6466 ft | 284 kts | 248° |
| 2026-05-04 00:22 | -33.67442 | 150.59881 | 6684 ft | 295 kts | 215° |
| 2026-05-04 00:22 | -33.69373 | 150.59221 | 7296 ft | 290 kts | 183° |
| 2026-05-04 00:23 | -33.71319 | 150.59759 | 7782 ft | 288 kts | 153° |
| 2026-05-04 00:23 | -33.72790 | 150.61324 | 8257 ft | 283 kts | 122° |
| 2026-05-04 00:23 | -33.73702 | 150.63412 | 8706 ft | 282 kts | 112° |
| 2026-05-04 00:23 | -33.74498 | 150.65586 | 9220 ft | 283 kts | 111° |
| 2026-05-04 00:24 | -33.75298 | 150.67758 | 9627 ft | 285 kts | 111° |
| 2026-05-04 00:24 | -33.76105 | 150.69909 | 10021 ft | 286 kts | 112° |
| 2026-05-04 00:24 | -33.76931 | 150.72090 | 10361 ft | 287 kts | 112° |
| 2026-05-04 00:24 | -33.77765 | 150.74289 | 10656 ft | 289 kts | 111° |
| 2026-05-04 00:25 | -33.78604 | 150.76500 | 10990 ft | 291 kts | 112° |
| 2026-05-04 00:25 | -33.79453 | 150.78732 | 11338 ft | 292 kts | 112° |
| 2026-05-04 00:25 | -33.80301 | 150.80962 | 11635 ft | 296 kts | 112° |
| 2026-05-04 00:25 | -33.81162 | 150.83230 | 11932 ft | 299 kts | 112° |
| 2026-05-04 00:26 | -33.82025 | 150.85504 | 12366 ft | 299 kts | 112° |
| 2026-05-04 00:26 | -33.82887 | 150.87776 | 12778 ft | 299 kts | 112° |
| 2026-05-04 00:26 | -33.83757 | 150.90074 | 13089 ft | 301 kts | 112° |
| 2026-05-04 00:26 | -33.84611 | 150.92328 | 13363 ft | 302 kts | 112° |
| 2026-05-04 00:27 | -33.85503 | 150.94686 | 13524 ft | 307 kts | 112° |
| 2026-05-04 00:27 | -33.86376 | 150.96995 | 13742 ft | 308 kts | 112° |
| 2026-05-04 00:27 | -33.87277 | 150.99378 | 13969 ft | 309 kts | 112° |
| 2026-05-04 00:27 | -33.88169 | 151.01739 | 14171 ft | 310 kts | 112° |
| 2026-05-04 00:28 | -33.89050 | 151.04071 | 14352 ft | 311 kts | 112° |
| 2026-05-04 00:28 | -33.89941 | 151.06438 | 14586 ft | 310 kts | 113° |
| 2026-05-04 00:28 | -33.90836 | 151.08810 | 14763 ft | 311 kts | 113° |
| 2026-05-04 00:28 | -33.91733 | 151.11190 | 14934 ft | 312 kts | 113° |
| 2026-05-04 00:29 | -33.92634 | 151.13585 | 15138 ft | 314 kts | 113° |
| 2026-05-04 00:29 | -33.93463 | 151.16011 | 15330 ft | 314 kts | 104° |
| 2026-05-04 00:29 | -33.93741 | 151.18599 | 15490 ft | 310 kts | 85° |
| 2026-05-04 00:29 | -33.93397 | 151.21144 | 15641 ft | 307 kts | 71° |
| 2026-05-04 00:30 | -33.92802 | 151.23608 | 15795 ft | 307 kts | 69° |
| 2026-05-04 00:30 | -33.92169 | 151.26030 | 15946 ft | 307 kts | 68° |
| 2026-05-04 00:30 | -33.91505 | 151.28485 | 16086 ft | 308 kts | 68° |
| 2026-05-04 00:30 | -33.90830 | 151.30936 | 16242 ft | 308 kts | 68° |
| 2026-05-04 00:31 | -33.90147 | 151.33391 | 16379 ft | 309 kts | 68° |
| 2026-05-04 00:31 | -33.89459 | 151.35847 | 16498 ft | 310 kts | 67° |
| 2026-05-04 00:31 | -33.88766 | 151.38308 | 16617 ft | 311 kts | 67° |
| 2026-05-04 00:31 | -33.88070 | 151.40778 | 16751 ft | 312 kts | 68° |
| 2026-05-04 00:32 | -33.87372 | 151.43255 | 16868 ft | 312 kts | 67° |
| 2026-05-04 00:32 | -33.86682 | 151.45699 | 16984 ft | 312 kts | 67° |
| 2026-05-04 00:32 | -33.85981 | 151.48181 | 17112 ft | 313 kts | 67° |
| 2026-05-04 00:32 | -33.85273 | 151.50682 | 17339 ft | 317 kts | 67° |
| 2026-05-04 00:33 | -33.84562 | 151.53194 | 17691 ft | 317 kts | 67° |
| 2026-05-04 00:33 | -33.83133 | 151.58245 | 18345 ft | 320 kts | 67° |
| 2026-05-04 00:33 | -33.82413 | 151.60786 | 18606 ft | 321 kts | 67° |
| 2026-05-04 00:34 | -33.81690 | 151.63341 | 18841 ft | 323 kts | 67° |
| 2026-05-04 00:34 | -33.80959 | 151.65916 | 19026 ft | 327 kts | 66° |
| 2026-05-04 00:34 | -33.80221 | 151.68511 | 19267 ft | 328 kts | 67° |
| 2026-05-04 00:34 | -33.79489 | 151.71086 | 19483 ft | 330 kts | 66° |
| 2026-05-04 00:35 | -33.78744 | 151.73697 | 19690 ft | 332 kts | 67° |
| 2026-05-04 00:35 | -33.78000 | 151.76329 | 19908 ft | 333 kts | 67° |
| 2026-05-04 00:35 | -33.77260 | 151.78984 | 20108 ft | 335 kts | 67° |
| 2026-05-04 00:35 | -33.76520 | 151.81646 | 20305 ft | 336 kts | 67° |
| 2026-05-04 00:36 | -33.75779 | 151.84315 | 20500 ft | 338 kts | 67° |
| 2026-05-04 00:36 | -33.75032 | 151.87006 | 20685 ft | 338 kts | 67° |
| 2026-05-04 00:36 | -33.74284 | 151.89699 | 20839 ft | 341 kts | 67° |
| 2026-05-04 00:36 | -33.73531 | 151.92408 | 21016 ft | 342 kts | 67° |
| 2026-05-04 00:37 | -33.72786 | 151.95087 | 21182 ft | 343 kts | 67° |
| 2026-05-04 00:37 | -33.72026 | 151.97814 | 21345 ft | 345 kts | 67° |
| 2026-05-04 00:37 | -33.71263 | 152.00556 | 21513 ft | 346 kts | 67° |
| 2026-05-04 00:37 | -33.70498 | 152.03297 | 21665 ft | 347 kts | 67° |
| 2026-05-04 00:38 | -33.69739 | 152.06012 | 21819 ft | 348 kts | 67° |
| 2026-05-04 00:38 | -33.69005 | 152.08636 | 21954 ft | 349 kts | 67° |
| 2026-05-04 00:38 | -33.68228 | 152.11411 | 22097 ft | 350 kts | 67° |
| 2026-05-04 00:38 | -33.67459 | 152.14157 | 22230 ft | 351 kts | 67° |
| 2026-05-04 00:39 | -33.66677 | 152.16943 | 22350 ft | 352 kts | 67° |
| 2026-05-04 00:39 | -33.65893 | 152.19735 | 22465 ft | 354 kts | 67° |
| 2026-05-04 00:39 | -33.65120 | 152.22486 | 22589 ft | 354 kts | 67° |
| 2026-05-04 00:39 | -33.64343 | 152.25258 | 23124 ft | 341 kts | 66° |
| 2026-05-04 00:40 | -33.63602 | 152.27900 | 23774 ft | 328 kts | 66° |
| 2026-05-04 00:40 | -33.62876 | 152.30474 | 24144 ft | 324 kts | 65° |
| 2026-05-04 00:40 | -33.62158 | 152.33010 | 24402 ft | 324 kts | 65° |
| 2026-05-04 00:40 | -33.61431 | 152.35577 | 24623 ft | 326 kts | 65° |
| 2026-05-04 00:41 | -33.60704 | 152.38146 | 24831 ft | 328 kts | 65° |
| 2026-05-04 00:41 | -33.59968 | 152.40745 | 25037 ft | 329 kts | 65° |
| 2026-05-04 00:41 | -33.59226 | 152.43364 | 25236 ft | 331 kts | 65° |
| 2026-05-04 00:41 | -33.58484 | 152.45983 | 25427 ft | 333 kts | 65° |
| 2026-05-04 00:42 | -33.57746 | 152.48583 | 25609 ft | 334 kts | 64° |
| 2026-05-04 00:42 | -33.56996 | 152.51225 | 25802 ft | 336 kts | 64° |
| 2026-05-04 00:42 | -33.56241 | 152.53880 | 25968 ft | 337 kts | 64° |
| 2026-05-04 00:42 | -33.55481 | 152.56551 | 26153 ft | 338 kts | 64° |
| 2026-05-04 00:43 | -33.54718 | 152.59230 | 26323 ft | 340 kts | 64° |
| 2026-05-04 00:43 | -33.53952 | 152.61920 | 26456 ft | 342 kts | 64° |
| 2026-05-04 00:43 | -33.53177 | 152.64633 | 26594 ft | 344 kts | 64° |
| 2026-05-04 00:43 | -33.52399 | 152.67358 | 26753 ft | 346 kts | 64° |
| 2026-05-04 00:44 | -33.51617 | 152.70095 | 26900 ft | 347 kts | 63° |
| 2026-05-04 00:44 | -33.50842 | 152.72798 | 27046 ft | 348 kts | 63° |
| 2026-05-04 00:44 | -33.50049 | 152.75560 | 27123 ft | 352 kts | 63° |
| 2026-05-04 00:44 | -33.49247 | 152.78351 | 27138 ft | 357 kts | 63° |
| 2026-05-04 00:45 | -33.48433 | 152.81186 | 27138 ft | 362 kts | 63° |
| 2026-05-04 00:45 | -33.47612 | 152.84045 | 27126 ft | 366 kts | 64° |
| 2026-05-04 00:45 | -33.46783 | 152.86932 | 27135 ft | 368 kts | 64° |
| 2026-05-04 00:45 | -33.45944 | 152.89850 | 27137 ft | 371 kts | 64° |
| 2026-05-04 00:46 | -33.45110 | 152.92744 | 27138 ft | 374 kts | 64° |
| 2026-05-04 00:46 | -33.44260 | 152.95692 | 27138 ft | 375 kts | 64° |
| 2026-05-04 00:46 | -33.43406 | 152.98655 | 27138 ft | 377 kts | 64° |
| 2026-05-04 00:46 | -33.42547 | 153.01628 | 27140 ft | 378 kts | 64° |
| 2026-05-04 00:47 | -33.41683 | 153.04613 | 27140 ft | 379 kts | 64° |
| 2026-05-04 00:47 | -33.40817 | 153.07605 | 27130 ft | 380 kts | 63° |
| 2026-05-04 00:47 | -33.39947 | 153.10602 | 27138 ft | 381 kts | 63° |
| 2026-05-04 00:47 | -33.39075 | 153.13608 | 27133 ft | 382 kts | 64° |
| 2026-05-04 00:48 | -33.38200 | 153.16620 | 27140 ft | 383 kts | 64° |
| 2026-05-04 00:48 | -33.37323 | 153.19634 | 27143 ft | 384 kts | 64° |
| 2026-05-04 00:48 | -33.36444 | 153.22651 | 27139 ft | 384 kts | 63° |
| 2026-05-04 00:48 | -33.35563 | 153.25670 | 27141 ft | 385 kts | 63° |
| 2026-05-04 00:49 | -33.34680 | 153.28696 | 27142 ft | 385 kts | 63° |
| 2026-05-04 00:49 | -33.33809 | 153.31679 | 27144 ft | 385 kts | 63° |
| 2026-05-04 00:49 | -33.32923 | 153.34710 | 27140 ft | 386 kts | 63° |
| 2026-05-04 00:49 | -33.32036 | 153.37742 | 27147 ft | 386 kts | 63° |
| 2026-05-04 00:50 | -33.31148 | 153.40773 | 27150 ft | 386 kts | 63° |
| 2026-05-04 00:50 | -33.30260 | 153.43800 | 27136 ft | 386 kts | 64° |
| 2026-05-04 00:50 | -33.29373 | 153.46822 | 27145 ft | 386 kts | 64° |
| 2026-05-04 00:50 | -33.28483 | 153.49848 | 27154 ft | 386 kts | 64° |
| 2026-05-04 00:51 | -33.27591 | 153.52882 | 27151 ft | 386 kts | 64° |
| 2026-05-04 00:51 | -33.26701 | 153.55905 | 27155 ft | 386 kts | 64° |
| 2026-05-04 00:51 | -33.25808 | 153.58937 | 27159 ft | 387 kts | 64° |
| 2026-05-04 00:51 | -33.24912 | 153.61973 | 27160 ft | 387 kts | 63° |
| 2026-05-04 00:52 | -33.24026 | 153.64971 | 27157 ft | 387 kts | 64° |
| 2026-05-04 00:52 | -33.23127 | 153.68013 | 27158 ft | 388 kts | 64° |
| 2026-05-04 00:52 | -33.22227 | 153.71056 | 27159 ft | 388 kts | 63° |
| 2026-05-04 00:52 | -33.21333 | 153.74076 | 27156 ft | 388 kts | 64° |
| 2026-05-04 00:53 | -33.20433 | 153.77115 | 27155 ft | 388 kts | 64° |
| 2026-05-04 00:53 | -33.19531 | 153.80152 | 27162 ft | 388 kts | 64° |
| 2026-05-04 00:53 | -33.18629 | 153.83185 | 27162 ft | 388 kts | 64° |
| 2026-05-04 00:53 | -33.17727 | 153.86216 | 27161 ft | 388 kts | 64° |
| 2026-05-04 00:54 | -33.16823 | 153.89256 | 27170 ft | 388 kts | 64° |
| 2026-05-04 00:54 | -33.15931 | 153.92255 | 27169 ft | 388 kts | 64° |
| 2026-05-04 00:54 | -33.15027 | 153.95285 | 27169 ft | 388 kts | 64° |
| 2026-05-04 00:54 | -33.14121 | 153.98318 | 27169 ft | 388 kts | 64° |
| 2026-05-04 00:55 | -33.13214 | 154.01352 | 27170 ft | 388 kts | 64° |
| 2026-05-04 00:55 | -33.12305 | 154.04385 | 27169 ft | 388 kts | 64° |
| 2026-05-04 00:55 | -33.11398 | 154.07412 | 27173 ft | 388 kts | 64° |
| 2026-05-04 00:55 | -33.10488 | 154.10443 | 27171 ft | 388 kts | 64° |
| 2026-05-04 00:56 | -33.09577 | 154.13477 | 27176 ft | 388 kts | 64° |
| 2026-05-04 00:56 | -33.08677 | 154.16468 | 27178 ft | 388 kts | 64° |
| 2026-05-04 00:56 | -33.07766 | 154.19496 | 27178 ft | 388 kts | 64° |
| 2026-05-04 00:56 | -33.06854 | 154.22523 | 27177 ft | 388 kts | 64° |
| 2026-05-04 00:57 | -33.05941 | 154.25549 | 27183 ft | 388 kts | 64° |
| 2026-05-04 00:57 | -33.05028 | 154.28574 | 27182 ft | 388 kts | 64° |
| 2026-05-04 00:57 | -33.04113 | 154.31600 | 27183 ft | 388 kts | 64° |
| 2026-05-04 00:57 | -33.03198 | 154.34626 | 27182 ft | 388 kts | 64° |
| 2026-05-04 00:58 | -33.02282 | 154.37649 | 27188 ft | 388 kts | 64° |
| 2026-05-04 00:58 | -33.01366 | 154.40674 | 27188 ft | 388 kts | 64° |
| 2026-05-04 00:58 | -33.00447 | 154.43699 | 27178 ft | 388 kts | 64° |
| 2026-05-04 00:58 | -32.99538 | 154.46693 | 27184 ft | 388 kts | 64° |
| 2026-05-04 00:59 | -32.98617 | 154.49721 | 27192 ft | 388 kts | 64° |
| 2026-05-04 00:59 | -32.97698 | 154.52743 | 27192 ft | 388 kts | 64° |
| 2026-05-04 00:59 | -32.96778 | 154.55763 | 27191 ft | 388 kts | 64° |
| 2026-05-04 00:59 | -32.95857 | 154.58783 | 27192 ft | 388 kts | 64° |
| 2026-05-04 01:00 | -32.94933 | 154.61810 | 27194 ft | 388 kts | 64° |
| 2026-05-04 01:00 | -32.94008 | 154.64837 | 27197 ft | 388 kts | 64° |
| 2026-05-04 01:00 | -32.93085 | 154.67854 | 27180 ft | 388 kts | 64° |
| 2026-05-04 01:00 | -32.92159 | 154.70880 | 27195 ft | 388 kts | 64° |
| 2026-05-04 01:01 | -32.91234 | 154.73898 | 27199 ft | 388 kts | 64° |
| 2026-05-04 01:01 | -32.90319 | 154.76878 | 27191 ft | 388 kts | 64° |
| 2026-05-04 01:01 | -32.89393 | 154.79895 | 27194 ft | 388 kts | 64° |
| 2026-05-04 01:01 | -32.88464 | 154.82918 | 27194 ft | 388 kts | 64° |
| 2026-05-04 01:02 | -32.87533 | 154.85942 | 27197 ft | 389 kts | 64° |
| 2026-05-04 01:02 | -32.86602 | 154.88966 | 27196 ft | 389 kts | 64° |
| 2026-05-04 01:02 | -32.85986 | 154.90964 | 27184 ft | 389 kts | 64° |
| 2026-05-04 01:02 | -32.85052 | 154.93981 | 27196 ft | 388 kts | 63° |
| 2026-05-04 01:03 | -32.83779 | 154.97955 | 27190 ft | 387 kts | 64° |
| 2026-05-04 01:03 | -32.83149 | 154.99990 | 27190 ft | 388 kts | 65° |
| 2026-05-04 01:03 | -32.82233 | 155.03011 | 27200 ft | 387 kts | 65° |
| 2026-05-04 01:03 | -32.81340 | 155.05985 | 27198 ft | 387 kts | 65° |
| 2026-05-04 01:04 | -32.80437 | 155.09000 | 27202 ft | 387 kts | 65° |
| 2026-05-04 01:04 | -32.79529 | 155.12036 | 27203 ft | 388 kts | 65° |
| 2026-05-04 01:04 | -32.78330 | 155.16041 | 27202 ft | 388 kts | 65° |
| 2026-05-04 01:04 | -32.77719 | 155.18082 | 27194 ft | 388 kts | 65° |
| 2026-05-04 01:05 | -32.76825 | 155.21061 | 27198 ft | 387 kts | 65° |
| 2026-05-04 01:05 | -32.75917 | 155.24084 | 27200 ft | 387 kts | 65° |
| 2026-05-04 01:05 | -32.75010 | 155.27102 | 27201 ft | 387 kts | 65° |
| 2026-05-04 01:05 | -32.74100 | 155.30124 | 27204 ft | 387 kts | 65° |
| 2026-05-04 01:06 | -32.73192 | 155.33135 | 27203 ft | 387 kts | 65° |
| 2026-05-04 01:06 | -32.72293 | 155.36117 | 27204 ft | 387 kts | 65° |
| 2026-05-04 01:06 | -32.71384 | 155.39125 | 27188 ft | 387 kts | 65° |
| 2026-05-04 01:06 | -32.70474 | 155.42135 | 27205 ft | 387 kts | 65° |
| 2026-05-04 01:07 | -32.69564 | 155.45140 | 27204 ft | 387 kts | 65° |
| 2026-05-04 01:07 | -32.68649 | 155.48161 | 27207 ft | 387 kts | 65° |
| 2026-05-04 01:07 | -32.67735 | 155.51172 | 27209 ft | 387 kts | 65° |
| 2026-05-04 01:07 | -32.66820 | 155.54183 | 27211 ft | 387 kts | 65° |
| 2026-05-04 01:08 | -32.65905 | 155.57194 | 27208 ft | 387 kts | 65° |
| 2026-05-04 01:08 | -32.65000 | 155.60165 | 27208 ft | 387 kts | 65° |
| 2026-05-04 01:08 | -32.64085 | 155.63168 | 27209 ft | 388 kts | 65° |
| 2026-05-04 01:08 | -32.63167 | 155.66175 | 27207 ft | 388 kts | 65° |
| 2026-05-04 01:09 | -32.62245 | 155.69194 | 27210 ft | 388 kts | 65° |
| 2026-05-04 01:09 | -32.61324 | 155.72207 | 27203 ft | 388 kts | 65° |
| 2026-05-04 01:09 | -32.60403 | 155.75215 | 27198 ft | 388 kts | 65° |
| 2026-05-04 01:09 | -32.59479 | 155.78232 | 27212 ft | 389 kts | 65° |
| 2026-05-04 01:10 | -32.58564 | 155.81212 | 27212 ft | 389 kts | 65° |
| 2026-05-04 01:10 | -32.57639 | 155.84225 | 27210 ft | 389 kts | 65° |
| 2026-05-04 01:10 | -32.56712 | 155.87241 | 27197 ft | 389 kts | 65° |
| 2026-05-04 01:10 | -32.55784 | 155.90256 | 27208 ft | 388 kts | 65° |
| 2026-05-04 01:11 | -32.54855 | 155.93272 | 27207 ft | 388 kts | 65° |
| 2026-05-04 01:11 | -32.53927 | 155.96281 | 27206 ft | 389 kts | 65° |
| 2026-05-04 01:11 | -32.52995 | 155.99300 | 27208 ft | 389 kts | 65° |
| 2026-05-04 01:11 | -32.52062 | 156.02319 | 27210 ft | 390 kts | 65° |
| 2026-05-04 01:12 | -32.51129 | 156.05334 | 27211 ft | 390 kts | 65° |
| 2026-05-04 01:12 | -32.50205 | 156.08317 | 27210 ft | 390 kts | 65° |
| 2026-05-04 01:12 | -32.49269 | 156.11338 | 27211 ft | 390 kts | 65° |
| 2026-05-04 01:12 | -32.48331 | 156.14357 | 27213 ft | 391 kts | 65° |
| 2026-05-04 01:13 | -32.47392 | 156.17380 | 27210 ft | 391 kts | 65° |
| 2026-05-04 01:13 | -32.46454 | 156.20398 | 27210 ft | 391 kts | 65° |
| 2026-05-04 01:13 | -32.45512 | 156.23425 | 27209 ft | 391 kts | 65° |
| 2026-05-04 01:13 | -32.44569 | 156.26449 | 27206 ft | 391 kts | 65° |
| 2026-05-04 01:14 | -32.43640 | 156.29429 | 27210 ft | 391 kts | 65° |
| 2026-05-04 01:14 | -32.42694 | 156.32456 | 27211 ft | 391 kts | 65° |
| 2026-05-04 01:14 | -32.41749 | 156.35481 | 27201 ft | 391 kts | 65° |
| 2026-05-04 01:14 | -32.40803 | 156.38503 | 27206 ft | 391 kts | 65° |
| 2026-05-04 01:15 | -32.39856 | 156.41528 | 27209 ft | 391 kts | 65° |
| 2026-05-04 01:15 | -32.38909 | 156.44547 | 27212 ft | 391 kts | 65° |
| 2026-05-04 01:15 | -32.37963 | 156.47564 | 27211 ft | 391 kts | 65° |
| 2026-05-04 01:15 | -32.37015 | 156.50580 | 27211 ft | 391 kts | 65° |
| 2026-05-04 01:16 | -32.36066 | 156.53596 | 27210 ft | 391 kts | 65° |
| 2026-05-04 01:16 | -32.35129 | 156.56574 | 27212 ft | 391 kts | 65° |
| 2026-05-04 01:16 | -32.34178 | 156.59592 | 27213 ft | 391 kts | 65° |
| 2026-05-04 01:16 | -32.33226 | 156.62611 | 27214 ft | 391 kts | 65° |
| 2026-05-04 01:17 | -32.32273 | 156.65629 | 27214 ft | 391 kts | 65° |
| 2026-05-04 01:17 | -32.31332 | 156.68606 | 27212 ft | 391 kts | 65° |
| 2026-05-04 01:17 | -32.30377 | 156.71624 | 27212 ft | 391 kts | 65° |
| 2026-05-04 01:17 | -32.29422 | 156.74639 | 27213 ft | 391 kts | 65° |
| 2026-05-04 01:18 | -32.28467 | 156.77651 | 27213 ft | 392 kts | 65° |
| 2026-05-04 01:18 | -32.27511 | 156.80665 | 27217 ft | 392 kts | 65° |
| 2026-05-04 01:18 | -32.26556 | 156.83673 | 27217 ft | 392 kts | 65° |
| 2026-05-04 01:18 | -32.25600 | 156.86681 | 27212 ft | 391 kts | 65° |
| 2026-05-04 01:19 | -32.24641 | 156.89693 | 27213 ft | 391 kts | 65° |
| 2026-05-04 01:19 | -32.23683 | 156.92701 | 27217 ft | 391 kts | 65° |
| 2026-05-04 01:19 | -32.22722 | 156.95713 | 27214 ft | 391 kts | 65° |
| 2026-05-04 01:19 | -32.21774 | 156.98685 | 27217 ft | 391 kts | 65° |
| 2026-05-04 01:20 | -32.20811 | 157.01700 | 27215 ft | 391 kts | 65° |
| 2026-05-04 01:20 | -32.19849 | 157.04707 | 27218 ft | 391 kts | 65° |
| 2026-05-04 01:20 | -32.18886 | 157.07716 | 27215 ft | 391 kts | 65° |
| 2026-05-04 01:20 | -32.17920 | 157.10731 | 27217 ft | 391 kts | 65° |
| 2026-05-04 01:21 | -32.16968 | 157.13700 | 27215 ft | 391 kts | 65° |
| 2026-05-04 01:21 | -32.16000 | 157.16713 | 27206 ft | 391 kts | 65° |
| 2026-05-04 01:21 | -32.15036 | 157.19713 | 27211 ft | 391 kts | 65° |
| 2026-05-04 01:21 | -32.14069 | 157.22719 | 27219 ft | 391 kts | 66° |
| 2026-05-04 01:22 | -32.13101 | 157.25726 | 27214 ft | 391 kts | 66° |
| 2026-05-04 01:22 | -32.12133 | 157.28731 | 27222 ft | 391 kts | 66° |
| 2026-05-04 01:22 | -32.11171 | 157.31714 | 27220 ft | 391 kts | 66° |
| 2026-05-04 01:22 | -32.10211 | 157.34685 | 27206 ft | 391 kts | 65° |
| 2026-05-04 01:23 | -32.09243 | 157.37681 | 27220 ft | 391 kts | 65° |
| 2026-05-04 01:23 | -32.08287 | 157.40637 | 27219 ft | 391 kts | 65° |
| 2026-05-04 01:23 | -32.07314 | 157.43642 | 27218 ft | 391 kts | 65° |
| 2026-05-04 01:23 | -32.06342 | 157.46640 | 27218 ft | 391 kts | 65° |
| 2026-05-04 01:24 | -32.05370 | 157.49635 | 27218 ft | 391 kts | 65° |
| 2026-05-04 01:24 | -32.04395 | 157.52639 | 27217 ft | 391 kts | 65° |
| 2026-05-04 01:24 | -32.03421 | 157.55635 | 27222 ft | 391 kts | 66° |
| 2026-05-04 01:24 | -32.02447 | 157.58629 | 27218 ft | 391 kts | 66° |
| 2026-05-04 01:25 | -32.01484 | 157.61586 | 27217 ft | 391 kts | 66° |
| 2026-05-04 01:25 | -32.00508 | 157.64582 | 27218 ft | 391 kts | 66° |
| 2026-05-04 01:25 | -31.99530 | 157.67580 | 27218 ft | 391 kts | 66° |
| 2026-05-04 01:25 | -31.98560 | 157.70549 | 27218 ft | 391 kts | 66° |
| 2026-05-04 01:26 | -31.97581 | 157.73543 | 27219 ft | 391 kts | 66° |
| 2026-05-04 01:26 | -31.96603 | 157.76532 | 27218 ft | 391 kts | 66° |
| 2026-05-04 01:26 | -31.95625 | 157.79518 | 27218 ft | 391 kts | 66° |
| 2026-05-04 01:26 | -31.94658 | 157.82470 | 27218 ft | 391 kts | 66° |
| 2026-05-04 01:27 | -31.93679 | 157.85454 | 27212 ft | 390 kts | 66° |
| 2026-05-04 01:27 | -31.92703 | 157.88426 | 27222 ft | 390 kts | 66° |
| 2026-05-04 01:27 | -31.91724 | 157.91404 | 27218 ft | 391 kts | 66° |
| 2026-05-04 01:27 | -31.90739 | 157.94397 | 27217 ft | 391 kts | 66° |
| 2026-05-04 01:28 | -31.89757 | 157.97379 | 27216 ft | 391 kts | 66° |
| 2026-05-04 01:28 | -31.88772 | 158.00367 | 27215 ft | 391 kts | 66° |
| 2026-05-04 01:28 | -31.87788 | 158.03349 | 27215 ft | 391 kts | 66° |
| 2026-05-04 01:28 | -31.86805 | 158.06325 | 27215 ft | 391 kts | 66° |
| 2026-05-04 01:29 | -31.85817 | 158.09315 | 27214 ft | 391 kts | 66° |
| 2026-05-04 01:29 | -31.84829 | 158.12300 | 27215 ft | 391 kts | 66° |
| 2026-05-04 01:29 | -31.83856 | 158.15238 | 27216 ft | 391 kts | 66° |
| 2026-05-04 01:29 | -31.82857 | 158.18252 | 27215 ft | 391 kts | 66° |
| 2026-05-04 01:30 | -31.81882 | 158.21189 | 27214 ft | 391 kts | 66° |
| 2026-05-04 01:30 | -31.80893 | 158.24170 | 27214 ft | 391 kts | 66° |
| 2026-05-04 01:30 | -31.79902 | 158.27150 | 27215 ft | 390 kts | 66° |
| 2026-05-04 01:30 | -31.78912 | 158.30125 | 27215 ft | 390 kts | 66° |
| 2026-05-04 01:31 | -31.77921 | 158.33103 | 27220 ft | 390 kts | 66° |
| 2026-05-04 01:31 | -31.76930 | 158.36075 | 27205 ft | 390 kts | 66° |
| 2026-05-04 01:31 | -31.75940 | 158.39044 | 27215 ft | 390 kts | 66° |
| 2026-05-04 01:31 | -31.74947 | 158.42016 | 27216 ft | 390 kts | 66° |
| 2026-05-04 01:32 | -31.73953 | 158.44990 | 27215 ft | 391 kts | 66° |
| 2026-05-04 01:32 | -31.72959 | 158.47962 | 27212 ft | 391 kts | 66° |
| 2026-05-04 01:32 | -31.71963 | 158.50936 | 27213 ft | 391 kts | 66° |
| 2026-05-04 01:32 | -31.70965 | 158.53914 | 27213 ft | 391 kts | 66° |
| 2026-05-04 01:33 | -31.69981 | 158.56848 | 27213 ft | 391 kts | 66° |
| 2026-05-04 01:33 | -31.68983 | 158.59819 | 27215 ft | 391 kts | 66° |
| 2026-05-04 01:33 | -31.67984 | 158.62792 | 27215 ft | 391 kts | 66° |
| 2026-05-04 01:33 | -31.66984 | 158.65765 | 27216 ft | 391 kts | 66° |
| 2026-05-04 01:34 | -31.65983 | 158.68739 | 27216 ft | 391 kts | 66° |
| 2026-05-04 01:34 | -31.64978 | 158.71720 | 27215 ft | 391 kts | 66° |
| 2026-05-04 01:34 | -31.63975 | 158.74696 | 27217 ft | 392 kts | 66° |
| 2026-05-04 01:34 | -31.62972 | 158.77665 | 27218 ft | 392 kts | 66° |
| 2026-05-04 01:35 | -31.61968 | 158.80638 | 27219 ft | 392 kts | 66° |
| 2026-05-04 01:35 | -31.60975 | 158.83574 | 27220 ft | 392 kts | 66° |
| 2026-05-04 01:35 | -31.59972 | 158.86537 | 27222 ft | 392 kts | 66° |
| 2026-05-04 01:35 | -31.58965 | 158.89511 | 27221 ft | 392 kts | 66° |
| 2026-05-04 01:36 | -31.57956 | 158.92483 | 27222 ft | 391 kts | 66° |
| 2026-05-04 01:36 | -31.56947 | 158.95456 | 27222 ft | 391 kts | 66° |
| 2026-05-04 01:36 | -31.55953 | 158.98382 | 27223 ft | 391 kts | 66° |
| 2026-05-04 01:36 | -31.54941 | 159.01357 | 27223 ft | 391 kts | 66° |
| 2026-05-04 01:37 | -31.53933 | 159.04320 | 27224 ft | 391 kts | 66° |
| 2026-05-04 01:37 | -31.52935 | 159.07302 | 27224 ft | 392 kts | 68° |
| 2026-05-04 01:37 | -31.52068 | 159.10324 | 27225 ft | 392 kts | 71° |
| 2026-05-04 01:37 | -31.51283 | 159.13344 | 27222 ft | 393 kts | 72° |
| 2026-05-04 01:38 | -31.50513 | 159.16415 | 27222 ft | 393 kts | 72° |
| 2026-05-04 01:38 | -31.49752 | 159.19492 | 27229 ft | 393 kts | 73° |
| 2026-05-04 01:38 | -31.48994 | 159.22567 | 27223 ft | 392 kts | 73° |
| 2026-05-04 01:38 | -31.48237 | 159.25639 | 27221 ft | 392 kts | 73° |
| 2026-05-04 01:39 | -31.47480 | 159.28708 | 27219 ft | 392 kts | 73° |
| 2026-05-04 01:39 | -31.46722 | 159.31780 | 27218 ft | 392 kts | 73° |
| 2026-05-04 01:39 | -31.45964 | 159.34849 | 27217 ft | 392 kts | 73° |
| 2026-05-04 01:39 | -31.45205 | 159.37916 | 27212 ft | 392 kts | 73° |
| 2026-05-04 01:40 | -31.44454 | 159.40947 | 27194 ft | 392 kts | 73° |
| 2026-05-04 01:40 | -31.43692 | 159.44014 | 27207 ft | 391 kts | 73° |
| 2026-05-04 01:40 | -31.42934 | 159.47065 | 27208 ft | 391 kts | 72° |
| 2026-05-04 01:40 | -31.42173 | 159.50126 | 27207 ft | 392 kts | 72° |
| 2026-05-04 01:41 | -31.41407 | 159.53199 | 27214 ft | 392 kts | 73° |
| 2026-05-04 01:41 | -31.40642 | 159.56266 | 27210 ft | 392 kts | 73° |
| 2026-05-04 01:41 | -31.39877 | 159.59329 | 27210 ft | 392 kts | 73° |
| 2026-05-04 01:41 | -31.39110 | 159.62391 | 27210 ft | 392 kts | 73° |
| 2026-05-04 01:42 | -31.38353 | 159.65415 | 27208 ft | 392 kts | 73° |
| 2026-05-04 01:42 | -31.37584 | 159.68479 | 27207 ft | 392 kts | 73° |
| 2026-05-04 01:42 | -31.36816 | 159.71539 | 27207 ft | 392 kts | 73° |
| 2026-05-04 01:42 | -31.36045 | 159.74603 | 27207 ft | 392 kts | 73° |
| 2026-05-04 01:43 | -31.35276 | 159.77658 | 27208 ft | 392 kts | 73° |
| 2026-05-04 01:43 | -31.34506 | 159.80713 | 27212 ft | 392 kts | 73° |
| 2026-05-04 01:43 | -31.33733 | 159.83775 | 27212 ft | 392 kts | 73° |
| 2026-05-04 01:43 | -31.32959 | 159.86837 | 27215 ft | 392 kts | 73° |
| 2026-05-04 01:44 | -31.32186 | 159.89893 | 27213 ft | 392 kts | 73° |
| 2026-05-04 01:44 | -31.31413 | 159.92944 | 27204 ft | 392 kts | 73° |
| 2026-05-04 01:44 | -31.30647 | 159.95963 | 27204 ft | 392 kts | 73° |
| 2026-05-04 01:44 | -31.29872 | 159.99014 | 27204 ft | 392 kts | 73° |
| 2026-05-04 01:45 | -31.29094 | 160.02072 | 27204 ft | 392 kts | 73° |
| 2026-05-04 01:45 | -31.28316 | 160.05128 | 27199 ft | 391 kts | 73° |
| 2026-05-04 01:45 | -31.26759 | 160.11233 | 27208 ft | 391 kts | 73° |
| 2026-05-04 01:46 | -31.25979 | 160.14286 | 27209 ft | 392 kts | 73° |
| 2026-05-04 01:46 | -31.25196 | 160.17345 | 27204 ft | 392 kts | 73° |
| 2026-05-04 01:46 | -31.24425 | 160.20355 | 27211 ft | 392 kts | 73° |
| 2026-05-04 01:46 | -31.23640 | 160.23418 | 27206 ft | 392 kts | 73° |
| 2026-05-04 01:47 | -31.22858 | 160.26463 | 27204 ft | 392 kts | 73° |
| 2026-05-04 01:47 | -31.22071 | 160.29523 | 27204 ft | 392 kts | 73° |
| 2026-05-04 01:47 | -31.21286 | 160.32575 | 27204 ft | 392 kts | 73° |
| 2026-05-04 01:47 | -31.20502 | 160.35619 | 27210 ft | 392 kts | 73° |
| 2026-05-04 01:48 | -31.19724 | 160.38632 | 27209 ft | 392 kts | 73° |
| 2026-05-04 01:48 | -31.18938 | 160.41678 | 27201 ft | 392 kts | 73° |
| 2026-05-04 01:48 | -31.18147 | 160.44735 | 27201 ft | 392 kts | 73° |
| 2026-05-04 01:48 | -31.17359 | 160.47782 | 27202 ft | 392 kts | 73° |
| 2026-05-04 01:49 | -31.16568 | 160.50831 | 27201 ft | 392 kts | 73° |
| 2026-05-04 01:49 | -31.15779 | 160.53876 | 27202 ft | 392 kts | 73° |
| 2026-05-04 01:49 | -31.14988 | 160.56923 | 27202 ft | 392 kts | 73° |
| 2026-05-04 01:49 | -31.14204 | 160.59936 | 27202 ft | 392 kts | 73° |
| 2026-05-04 01:50 | -31.13409 | 160.62989 | 27203 ft | 392 kts | 73° |
| 2026-05-04 01:50 | -31.12613 | 160.66046 | 27195 ft | 392 kts | 73° |
| 2026-05-04 01:50 | -31.11816 | 160.69099 | 27200 ft | 392 kts | 73° |
| 2026-05-04 01:50 | -31.11031 | 160.72106 | 27202 ft | 392 kts | 73° |
| 2026-05-04 01:51 | -31.10233 | 160.75157 | 27204 ft | 392 kts | 73° |
| 2026-05-04 01:51 | -31.09437 | 160.78198 | 27204 ft | 392 kts | 73° |
| 2026-05-04 01:51 | -31.08639 | 160.81242 | 27204 ft | 392 kts | 73° |
| 2026-05-04 01:51 | -31.07843 | 160.84279 | 27205 ft | 392 kts | 73° |
| 2026-05-04 01:52 | -31.07042 | 160.87325 | 27201 ft | 392 kts | 73° |
| 2026-05-04 01:52 | -31.06243 | 160.90367 | 27208 ft | 392 kts | 74° |
| 2026-05-04 01:52 | -31.05443 | 160.93406 | 27199 ft | 392 kts | 74° |
| 2026-05-04 01:52 | -31.04640 | 160.96451 | 27198 ft | 392 kts | 74° |
| 2026-05-04 01:53 | -31.03836 | 160.99498 | 27199 ft | 392 kts | 74° |
| 2026-05-04 01:53 | -31.03043 | 161.02501 | 27202 ft | 392 kts | 74° |
| 2026-05-04 01:53 | -31.02500 | 161.04557 | 27201 ft | 392 kts | 74° |
| 2026-05-04 01:53 | -31.01695 | 161.07601 | 27202 ft | 392 kts | 74° |
| 2026-05-04 01:54 | -31.00889 | 161.10641 | 27202 ft | 392 kts | 73° |
| 2026-05-04 01:54 | -31.00092 | 161.13648 | 27202 ft | 393 kts | 73° |
| 2026-05-04 01:54 | -30.99285 | 161.16689 | 27204 ft | 393 kts | 73° |
| 2026-05-04 01:54 | -30.98477 | 161.19731 | 27202 ft | 392 kts | 73° |
| 2026-05-04 01:55 | -30.97668 | 161.22771 | 27212 ft | 393 kts | 74° |
| 2026-05-04 01:55 | -30.96857 | 161.25816 | 27203 ft | 394 kts | 74° |
| 2026-05-04 01:55 | -30.96044 | 161.28870 | 27202 ft | 394 kts | 74° |
| 2026-05-04 01:55 | -30.95230 | 161.31918 | 27196 ft | 394 kts | 74° |
| 2026-05-04 01:56 | -30.94415 | 161.34969 | 27200 ft | 393 kts | 74° |
| 2026-05-04 01:56 | -30.93611 | 161.37977 | 27199 ft | 393 kts | 74° |
| 2026-05-04 01:56 | -30.92786 | 161.41058 | 27199 ft | 393 kts | 74° |
| 2026-05-04 01:56 | -30.91981 | 161.44060 | 27199 ft | 393 kts | 74° |
| 2026-05-04 01:57 | -30.91164 | 161.47107 | 27199 ft | 393 kts | 74° |
| 2026-05-04 01:57 | -30.90348 | 161.50144 | 27199 ft | 393 kts | 74° |
| 2026-05-04 01:57 | -30.89530 | 161.53186 | 27199 ft | 393 kts | 74° |
| 2026-05-04 01:57 | -30.88712 | 161.56225 | 27199 ft | 393 kts | 74° |
| 2026-05-04 01:58 | -30.87892 | 161.59269 | 27205 ft | 394 kts | 74° |
| 2026-05-04 01:58 | -30.87070 | 161.62317 | 27201 ft | 394 kts | 74° |
| 2026-05-04 01:58 | -30.86246 | 161.65368 | 27201 ft | 394 kts | 74° |
| 2026-05-04 01:58 | -30.85433 | 161.68378 | 27196 ft | 394 kts | 74° |
| 2026-05-04 01:59 | -30.84608 | 161.71425 | 27196 ft | 395 kts | 74° |
| 2026-05-04 01:59 | -30.83782 | 161.74477 | 27196 ft | 395 kts | 74° |
| 2026-05-04 01:59 | -30.82952 | 161.77537 | 27196 ft | 395 kts | 74° |
| 2026-05-04 01:59 | -30.82126 | 161.80580 | 27196 ft | 395 kts | 74° |
| 2026-05-04 02:00 | -30.81308 | 161.83591 | 27196 ft | 395 kts | 74° |
| 2026-05-04 02:00 | -30.80478 | 161.86645 | 27201 ft | 395 kts | 74° |
| 2026-05-04 02:00 | -30.79648 | 161.89691 | 27202 ft | 395 kts | 74° |
| 2026-05-04 02:00 | -30.78817 | 161.92742 | 27202 ft | 395 kts | 74° |
| 2026-05-04 02:01 | -30.77983 | 161.95796 | 27192 ft | 395 kts | 74° |
| 2026-05-04 02:01 | -30.77151 | 161.98843 | 27194 ft | 395 kts | 74° |
| 2026-05-04 02:01 | -30.76329 | 162.01849 | 27194 ft | 394 kts | 74° |
| 2026-05-04 02:01 | -30.75496 | 162.04891 | 27193 ft | 394 kts | 74° |
| 2026-05-04 02:02 | -30.74663 | 162.07932 | 27193 ft | 394 kts | 74° |
| 2026-05-04 02:02 | -30.73832 | 162.10962 | 27193 ft | 394 kts | 74° |
| 2026-05-04 02:02 | -30.72999 | 162.13997 | 27196 ft | 394 kts | 74° |
| 2026-05-04 02:02 | -30.72167 | 162.17027 | 27196 ft | 394 kts | 74° |
| 2026-05-04 02:03 | -30.71332 | 162.20059 | 27194 ft | 394 kts | 74° |
| 2026-05-04 02:03 | -30.70498 | 162.23090 | 27193 ft | 394 kts | 74° |
| 2026-05-04 02:03 | -30.69661 | 162.26126 | 27197 ft | 394 kts | 74° |
| 2026-05-04 02:03 | -30.68834 | 162.29121 | 27194 ft | 394 kts | 74° |
| 2026-05-04 02:04 | -30.67995 | 162.32160 | 27195 ft | 394 kts | 74° |
| 2026-05-04 02:04 | -30.67156 | 162.35192 | 27193 ft | 394 kts | 74° |
| 2026-05-04 02:04 | -30.66316 | 162.38228 | 27193 ft | 394 kts | 74° |
| 2026-05-04 02:04 | -30.65477 | 162.41257 | 27194 ft | 394 kts | 74° |
| 2026-05-04 02:05 | -30.64634 | 162.44296 | 27193 ft | 394 kts | 74° |
| 2026-05-04 02:05 | -30.63791 | 162.47331 | 27193 ft | 395 kts | 74° |
| 2026-05-04 02:05 | -30.62950 | 162.50359 | 27194 ft | 395 kts | 74° |
| 2026-05-04 02:05 | -30.62105 | 162.53394 | 27193 ft | 395 kts | 74° |
| 2026-05-04 02:06 | -30.61270 | 162.56392 | 27193 ft | 395 kts | 74° |
| 2026-05-04 02:06 | -30.60425 | 162.59424 | 27186 ft | 394 kts | 74° |
| 2026-05-04 02:06 | -30.59579 | 162.62457 | 27197 ft | 394 kts | 74° |
| 2026-05-04 02:06 | -30.58732 | 162.65487 | 27194 ft | 395 kts | 74° |
| 2026-05-04 02:07 | -30.57885 | 162.68518 | 27197 ft | 395 kts | 74° |
| 2026-05-04 02:07 | -30.57037 | 162.71548 | 27193 ft | 395 kts | 74° |
| 2026-05-04 02:07 | -30.56185 | 162.74586 | 27193 ft | 395 kts | 74° |
| 2026-05-04 02:07 | -30.55335 | 162.77616 | 27194 ft | 395 kts | 74° |
| 2026-05-04 02:08 | -30.54483 | 162.80652 | 27192 ft | 395 kts | 74° |
| 2026-05-04 02:08 | -30.53641 | 162.83648 | 27194 ft | 395 kts | 74° |
| 2026-05-04 02:08 | -30.52787 | 162.86685 | 27193 ft | 395 kts | 74° |
| 2026-05-04 02:08 | -30.51932 | 162.89719 | 27193 ft | 395 kts | 74° |
| 2026-05-04 02:09 | -30.51077 | 162.92753 | 27195 ft | 395 kts | 74° |
| 2026-05-04 02:09 | -30.50221 | 162.95787 | 27204 ft | 395 kts | 74° |
| 2026-05-04 02:09 | -30.49375 | 162.98783 | 27195 ft | 395 kts | 74° |
| 2026-05-04 02:09 | -30.48499 | 163.01805 | 27193 ft | 395 kts | 73° |
| 2026-05-04 02:10 | -30.47616 | 163.04824 | 27193 ft | 395 kts | 74° |
| 2026-05-04 02:10 | -30.46770 | 163.07857 | 27194 ft | 395 kts | 75° |
| 2026-05-04 02:10 | -30.45943 | 163.10894 | 27193 ft | 395 kts | 75° |
| 2026-05-04 02:10 | -30.45123 | 163.13928 | 27193 ft | 394 kts | 75° |
| 2026-05-04 02:11 | -30.44303 | 163.16968 | 27196 ft | 394 kts | 75° |
| 2026-05-04 02:11 | -30.43484 | 163.20004 | 27193 ft | 395 kts | 75° |
| 2026-05-04 02:11 | -30.42675 | 163.23000 | 27193 ft | 395 kts | 75° |
| 2026-05-04 02:11 | -30.41855 | 163.26032 | 27188 ft | 394 kts | 75° |
| 2026-05-04 02:12 | -30.41035 | 163.29064 | 27193 ft | 394 kts | 75° |
| 2026-05-04 02:12 | -30.40212 | 163.32100 | 27197 ft | 394 kts | 75° |
| 2026-05-04 02:12 | -30.39389 | 163.35133 | 27190 ft | 394 kts | 75° |
| 2026-05-04 02:12 | -30.38565 | 163.38167 | 27190 ft | 394 kts | 75° |
| 2026-05-04 02:13 | -30.37740 | 163.41201 | 27188 ft | 394 kts | 75° |
| 2026-05-04 02:13 | -30.36925 | 163.44194 | 27188 ft | 394 kts | 75° |
| 2026-05-04 02:13 | -30.36098 | 163.47226 | 27188 ft | 394 kts | 75° |
| 2026-05-04 02:13 | -30.35273 | 163.50250 | 27188 ft | 394 kts | 75° |
| 2026-05-04 02:14 | -30.34445 | 163.53278 | 27190 ft | 394 kts | 75° |
| 2026-05-04 02:14 | -30.33617 | 163.56304 | 27190 ft | 394 kts | 75° |
| 2026-05-04 02:14 | -30.32789 | 163.59327 | 27191 ft | 394 kts | 75° |
| 2026-05-04 02:14 | -30.31962 | 163.62344 | 27191 ft | 394 kts | 75° |
| 2026-05-04 02:15 | -30.31131 | 163.65368 | 27206 ft | 394 kts | 75° |
| 2026-05-04 02:15 | -30.30301 | 163.68386 | 27195 ft | 394 kts | 75° |
| 2026-05-04 02:15 | -30.29493 | 163.71325 | 27184 ft | 393 kts | 75° |
| 2026-05-04 02:15 | -30.28662 | 163.74341 | 27192 ft | 393 kts | 75° |
| 2026-05-04 02:16 | -30.27831 | 163.77352 | 27193 ft | 393 kts | 75° |
| 2026-05-04 02:16 | -30.27011 | 163.80323 | 27192 ft | 392 kts | 75° |
| 2026-05-04 02:16 | -30.26181 | 163.83326 | 27193 ft | 392 kts | 75° |
| 2026-05-04 02:16 | -30.25349 | 163.86329 | 27188 ft | 392 kts | 75° |
| 2026-05-04 02:17 | -30.24516 | 163.89336 | 27188 ft | 392 kts | 75° |
| 2026-05-04 02:17 | -30.23684 | 163.92338 | 27175 ft | 392 kts | 75° |
| 2026-05-04 02:17 | -30.22851 | 163.95337 | 27186 ft | 391 kts | 75° |
| 2026-05-04 02:17 | -30.22018 | 163.98333 | 27189 ft | 392 kts | 75° |
| 2026-05-04 02:18 | -30.21183 | 164.01335 | 27208 ft | 391 kts | 75° |
| 2026-05-04 02:18 | -30.20347 | 164.04335 | 27191 ft | 391 kts | 75° |
| 2026-05-04 02:18 | -30.19513 | 164.07327 | 27181 ft | 391 kts | 75° |
| 2026-05-04 02:18 | -30.18491 | 164.10199 | 27183 ft | 394 kts | 59° |
| 2026-05-04 02:19 | -30.16648 | 164.12530 | 27182 ft | 394 kts | 34° |
| 2026-05-04 02:19 | -30.14218 | 164.13916 | 27199 ft | 388 kts | 16° |
| 2026-05-04 02:19 | -30.11661 | 164.14923 | 27187 ft | 387 kts | 14° |
| 2026-05-04 02:19 | -30.09169 | 164.16113 | 27180 ft | 392 kts | 31° |
| 2026-05-04 02:20 | -30.07190 | 164.18260 | 27182 ft | 392 kts | 56° |
| 2026-05-04 02:20 | -30.05923 | 164.21025 | 27191 ft | 389 kts | 71° |
| 2026-05-04 02:20 | -30.04967 | 164.23909 | 27190 ft | 389 kts | 73° |
| 2026-05-04 02:20 | -30.04050 | 164.26845 | 27187 ft | 389 kts | 73° |
| 2026-05-04 02:21 | -30.03155 | 164.29792 | 27184 ft | 389 kts | 74° |
| 2026-05-04 02:21 | -30.02269 | 164.32744 | 27182 ft | 389 kts | 74° |
| 2026-05-04 02:21 | -30.01384 | 164.35702 | 27183 ft | 389 kts | 74° |
| 2026-05-04 02:21 | -30.00503 | 164.38650 | 27184 ft | 389 kts | 74° |
| 2026-05-04 02:22 | -29.99620 | 164.41603 | 27177 ft | 389 kts | 74° |
| 2026-05-04 02:22 | -29.98738 | 164.44555 | 27182 ft | 389 kts | 74° |
| 2026-05-04 02:22 | -29.97855 | 164.47503 | 27185 ft | 389 kts | 74° |
| 2026-05-04 02:22 | -29.96984 | 164.50409 | 27181 ft | 389 kts | 74° |
| 2026-05-04 02:23 | -29.96100 | 164.53355 | 27186 ft | 389 kts | 74° |
| 2026-05-04 02:23 | -29.95218 | 164.56292 | 27188 ft | 389 kts | 74° |
| 2026-05-04 02:23 | -29.94330 | 164.59248 | 27187 ft | 389 kts | 74° |
| 2026-05-04 02:23 | -29.93445 | 164.62191 | 27182 ft | 388 kts | 74° |
| 2026-05-04 02:24 | -29.92558 | 164.65137 | 27190 ft | 388 kts | 74° |
| 2026-05-04 02:24 | -29.91670 | 164.68082 | 27186 ft | 388 kts | 74° |
| 2026-05-04 02:24 | -29.90783 | 164.71022 | 27190 ft | 388 kts | 74° |
| 2026-05-04 02:24 | -29.89894 | 164.73963 | 27196 ft | 389 kts | 73° |
| 2026-05-04 02:25 | -29.89005 | 164.76906 | 27186 ft | 388 kts | 73° |
| 2026-05-04 02:25 | -29.88126 | 164.79812 | 27189 ft | 388 kts | 73° |
| 2026-05-04 02:25 | -29.87234 | 164.82756 | 27192 ft | 388 kts | 73° |
| 2026-05-04 02:25 | -29.86344 | 164.85695 | 27187 ft | 388 kts | 73° |
| 2026-05-04 02:26 | -29.85452 | 164.88633 | 27181 ft | 387 kts | 73° |
| 2026-05-04 02:26 | -29.84562 | 164.91563 | 27186 ft | 387 kts | 73° |
| 2026-05-04 02:26 | -29.83680 | 164.94465 | 27185 ft | 387 kts | 73° |
| 2026-05-04 02:26 | -29.82790 | 164.97390 | 27180 ft | 387 kts | 73° |
| 2026-05-04 02:27 | -29.81897 | 165.00325 | 27184 ft | 387 kts | 73° |
| 2026-05-04 02:27 | -29.81004 | 165.03254 | 27185 ft | 387 kts | 73° |
| 2026-05-04 02:27 | -29.80113 | 165.06172 | 27186 ft | 387 kts | 73° |
| 2026-05-04 02:27 | -29.79219 | 165.09101 | 27199 ft | 387 kts | 73° |
| 2026-05-04 02:28 | -29.78325 | 165.12025 | 27189 ft | 387 kts | 73° |
| 2026-05-04 02:28 | -29.77431 | 165.14947 | 27183 ft | 387 kts | 73° |
| 2026-05-04 02:28 | -29.76547 | 165.17834 | 27186 ft | 386 kts | 73° |
| 2026-05-04 02:28 | -29.75654 | 165.20745 | 27186 ft | 386 kts | 73° |
| 2026-05-04 02:29 | -29.74757 | 165.23670 | 27185 ft | 386 kts | 73° |
| 2026-05-04 02:29 | -29.73861 | 165.26588 | 27186 ft | 386 kts | 73° |
| 2026-05-04 02:29 | -29.72967 | 165.29497 | 27186 ft | 386 kts | 73° |
| 2026-05-04 02:29 | -29.72070 | 165.32411 | 27185 ft | 386 kts | 73° |
| 2026-05-04 02:30 | -29.71174 | 165.35322 | 27183 ft | 386 kts | 73° |
| 2026-05-04 02:30 | -29.70278 | 165.38230 | 27186 ft | 386 kts | 73° |
| 2026-05-04 02:30 | -29.69391 | 165.41104 | 27186 ft | 386 kts | 73° |
| 2026-05-04 02:30 | -29.68494 | 165.44008 | 27186 ft | 386 kts | 73° |
| 2026-05-04 02:31 | -29.67600 | 165.46901 | 27183 ft | 386 kts | 73° |
| 2026-05-04 02:31 | -29.66701 | 165.49809 | 27186 ft | 386 kts | 73° |
| 2026-05-04 02:31 | -29.65800 | 165.52720 | 27186 ft | 386 kts | 73° |
| 2026-05-04 02:31 | -29.64898 | 165.55629 | 27186 ft | 386 kts | 73° |
| 2026-05-04 02:32 | -29.63995 | 165.58540 | 27187 ft | 386 kts | 73° |
| 2026-05-04 02:32 | -29.63092 | 165.61448 | 27185 ft | 386 kts | 73° |
| 2026-05-04 02:32 | -29.62187 | 165.64362 | 27186 ft | 386 kts | 73° |
| 2026-05-04 02:32 | -29.61296 | 165.67228 | 27167 ft | 386 kts | 73° |
| 2026-05-04 02:33 | -29.60392 | 165.70132 | 27178 ft | 386 kts | 73° |
| 2026-05-04 02:33 | -29.59487 | 165.73036 | 27182 ft | 386 kts | 73° |
| 2026-05-04 02:33 | -29.58581 | 165.75944 | 27181 ft | 386 kts | 73° |
| 2026-05-04 02:33 | -29.57676 | 165.78842 | 27327 ft | 382 kts | 73° |
| 2026-05-04 02:34 | -29.56794 | 165.81661 | 27543 ft | 367 kts | 73° |
| 2026-05-04 02:34 | -29.55937 | 165.84401 | 27372 ft | 362 kts | 73° |
| 2026-05-04 02:34 | -29.55091 | 165.87107 | 27181 ft | 357 kts | 73° |
| 2026-05-04 02:34 | -29.54270 | 165.89728 | 27165 ft | 348 kts | 73° |
| 2026-05-04 02:35 | -29.53459 | 165.92314 | 27180 ft | 340 kts | 73° |
| 2026-05-04 02:35 | -29.52668 | 165.94836 | 27177 ft | 332 kts | 73° |
| 2026-05-04 02:35 | -29.51890 | 165.97317 | 27175 ft | 326 kts | 73° |
| 2026-05-04 02:35 | -29.51126 | 165.99748 | 27174 ft | 321 kts | 73° |
| 2026-05-04 02:36 | -29.50375 | 166.02139 | 27177 ft | 316 kts | 73° |
| 2026-05-04 02:36 | -29.49631 | 166.04504 | 27177 ft | 312 kts | 73° |
| 2026-05-04 02:36 | -29.48899 | 166.06831 | 27178 ft | 308 kts | 73° |
| 2026-05-04 02:36 | -29.48175 | 166.09131 | 27182 ft | 305 kts | 73° |
| 2026-05-04 02:37 | -29.47457 | 166.11409 | 27182 ft | 302 kts | 73° |
| 2026-05-04 02:37 | -29.46754 | 166.13636 | 27180 ft | 300 kts | 73° |
| 2026-05-04 02:37 | -29.46048 | 166.15873 | 27187 ft | 297 kts | 73° |
| 2026-05-04 02:37 | -29.45345 | 166.18096 | 27179 ft | 295 kts | 73° |
| 2026-05-04 02:38 | -29.44647 | 166.20306 | 27154 ft | 294 kts | 73° |
| 2026-05-04 02:38 | -29.43938 | 166.22555 | 26572 ft | 313 kts | 73° |
| 2026-05-04 02:38 | -29.43154 | 166.25053 | 25297 ft | 346 kts | 72° |
| 2026-05-04 02:38 | -29.42308 | 166.27715 | 24186 ft | 361 kts | 72° |
| 2026-05-04 02:39 | -29.41443 | 166.30432 | 23254 ft | 363 kts | 71° |
| 2026-05-04 02:39 | -29.40584 | 166.33128 | 22391 ft | 358 kts | 71° |
| 2026-05-04 02:39 | -29.39737 | 166.35790 | 21636 ft | 351 kts | 71° |
| 2026-05-04 02:39 | -29.38911 | 166.38390 | 20805 ft | 347 kts | 71° |
| 2026-05-04 02:40 | -29.38096 | 166.40955 | 20183 ft | 337 kts | 70° |
| 2026-05-04 02:40 | -29.37301 | 166.43454 | 19509 ft | 330 kts | 69° |
| 2026-05-04 02:40 | -29.36524 | 166.45895 | 18931 ft | 320 kts | 69° |
| 2026-05-04 02:40 | -29.35778 | 166.48239 | 18244 ft | 313 kts | 68° |
| 2026-05-04 02:41 | -29.35035 | 166.50564 | 17483 ft | 307 kts | 69° |
| 2026-05-04 02:41 | -29.34298 | 166.52853 | 16672 ft | 304 kts | 68° |
| 2026-05-04 02:41 | -29.33574 | 166.55112 | 15923 ft | 299 kts | 69° |
| 2026-05-04 02:41 | -29.32865 | 166.57332 | 15194 ft | 294 kts | 68° |
| 2026-05-04 02:42 | -29.32166 | 166.59520 | 14494 ft | 290 kts | 68° |
| 2026-05-04 02:42 | -29.31477 | 166.61673 | 13785 ft | 286 kts | 68° |
| 2026-05-04 02:42 | -29.30802 | 166.63789 | 13070 ft | 280 kts | 68° |
| 2026-05-04 02:42 | -29.30362 | 166.65167 | 12594 ft | 276 kts | 69° |
| 2026-05-04 02:43 | -29.29710 | 166.67212 | 11899 ft | 270 kts | 69° |
| 2026-05-04 02:43 | -29.28866 | 166.69851 | 10997 ft | 263 kts | 69° |
| 2026-05-04 02:43 | -29.28241 | 166.71800 | 10346 ft | 257 kts | 69° |
| 2026-05-04 02:43 | -29.27634 | 166.73693 | 9650 ft | 252 kts | 69° |
| 2026-05-04 02:44 | -29.27236 | 166.74929 | 9142 ft | 250 kts | 69° |
| 2026-05-04 02:44 | -29.26455 | 166.77359 | 8406 ft | 235 kts | 69° |
| 2026-05-04 02:44 | -29.26083 | 166.78515 | 7847 ft | 237 kts | 70° |
| 2026-05-04 02:44 | -29.25535 | 166.80217 | 7603 ft | 216 kts | 69° |
| 2026-05-04 02:45 | -29.25047 | 166.81733 | 7546 ft | 189 kts | 70° |
| 2026-05-04 02:45 | -29.24624 | 166.83052 | 7549 ft | 164 kts | 69° |
| 2026-05-04 02:45 | -29.24259 | 166.84190 | 7532 ft | 141 kts | 70° |
| 2026-05-04 02:45 | -29.23951 | 166.85150 | 7526 ft | 116 kts | 69° |
| 2026-05-04 02:46 | -29.23673 | 166.86020 | 6977 ft | 132 kts | 70° |
| 2026-05-04 02:46 | -29.23315 | 166.87144 | 6330 ft | 152 kts | 70° |
| 2026-05-04 02:46 | -29.23020 | 166.88158 | 6401 ft | 124 kts | 72° |
| 2026-05-04 02:46 | -29.22774 | 166.89152 | 5844 ft | 140 kts | 75° |
| 2026-05-04 02:47 | -29.22543 | 166.90245 | 5549 ft | 135 kts | 76° |
| 2026-05-04 02:47 | -29.22370 | 166.91240 | 5340 ft | 127 kts | 78° |
| 2026-05-04 02:47 | -29.22215 | 166.92286 | 4820 ft | 139 kts | 79° |
| 2026-05-04 02:47 | -29.22083 | 166.93405 | 4950 ft | 154 kts | 80° |
| 2026-05-04 02:48 | -29.21933 | 166.94607 | 5160 ft | 158 kts | 79° |
| 2026-05-04 02:48 | -29.21755 | 166.95853 | 5717 ft | 157 kts | 78° |
| 2026-05-04 02:48 | -29.21544 | 166.97009 | 6653 ft | 139 kts | 72° |
| 2026-05-04 02:48 | -29.21148 | 166.98043 | 7583 ft | 140 kts | 60° |
| 2026-05-04 02:49 | -29.20623 | 166.98870 | 7427 ft | 133 kts | 53° |
| 2026-05-04 02:49 | -29.19979 | 166.99725 | 7124 ft | 141 kts | 51° |
| 2026-05-04 02:49 | -29.19202 | 167.00681 | 7197 ft | 196 kts | 48° |
| 2026-05-04 02:49 | -29.18143 | 167.01853 | 7172 ft | 212 kts | 46° |
| 2026-05-04 02:50 | -29.17284 | 167.03080 | 6928 ft | 193 kts | 68° |
| 2026-05-04 02:50 | -29.16994 | 167.04581 | 6426 ft | 192 kts | 80° |
| 2026-05-04 02:50 | -29.16761 | 167.06105 | 6196 ft | 198 kts | 77° |
| 2026-05-04 02:50 | -29.16432 | 167.07732 | 6171 ft | 222 kts | 75° |
| 2026-05-04 02:51 | -29.16000 | 167.09511 | 6189 ft | 239 kts | 73° |
| 2026-05-04 02:51 | -29.15493 | 167.11368 | 6174 ft | 249 kts | 72° |
| 2026-05-04 02:51 | -29.14933 | 167.13274 | 6169 ft | 256 kts | 71° |
| 2026-05-04 02:51 | -29.14335 | 167.15217 | 6171 ft | 261 kts | 70° |
| 2026-05-04 02:52 | -29.13720 | 167.17160 | 6161 ft | 249 kts | 70° |
| 2026-05-04 02:52 | -29.13143 | 167.18956 | 6157 ft | 235 kts | 70° |
| 2026-05-04 02:52 | -29.12584 | 167.20679 | 6161 ft | 227 kts | 69° |
| 2026-05-04 02:52 | -29.12048 | 167.22324 | 6160 ft | 221 kts | 70° |
| 2026-05-04 02:53 | -29.11516 | 167.23946 | 6162 ft | 215 kts | 69° |
| 2026-05-04 02:53 | -29.10993 | 167.25537 | 6171 ft | 212 kts | 70° |
| 2026-05-04 02:53 | -29.10485 | 167.27080 | 6163 ft | 211 kts | 70° |
| 2026-05-04 02:53 | -29.09963 | 167.28665 | 6163 ft | 214 kts | 69° |
| 2026-05-04 02:54 | -29.09431 | 167.30275 | 6164 ft | 216 kts | 69° |
| 2026-05-04 02:54 | -29.08897 | 167.31892 | 6162 ft | 218 kts | 69° |
| 2026-05-04 02:54 | -29.08367 | 167.33497 | 6164 ft | 219 kts | 69° |
| 2026-05-04 02:54 | -29.07826 | 167.35134 | 6165 ft | 220 kts | 69° |
| 2026-05-04 02:55 | -29.06738 | 167.38428 | 6166 ft | 221 kts | 69° |
| 2026-05-04 02:55 | -29.06195 | 167.40071 | 6164 ft | 221 kts | 69° |
| 2026-05-04 02:55 | -29.05658 | 167.41696 | 6170 ft | 221 kts | 69° |
| 2026-05-04 02:56 | -29.05117 | 167.43331 | 6168 ft | 220 kts | 69° |
| 2026-05-04 02:56 | -29.04576 | 167.44967 | 6164 ft | 220 kts | 69° |
| 2026-05-04 02:56 | -29.04032 | 167.46612 | 6168 ft | 221 kts | 69° |
| 2026-05-04 02:56 | -29.03489 | 167.48255 | 6162 ft | 220 kts | 69° |
| 2026-05-04 02:57 | -29.02954 | 167.49873 | 6163 ft | 221 kts | 69° |
| 2026-05-04 02:57 | -29.02391 | 167.51505 | 6166 ft | 221 kts | 66° |
| 2026-05-04 02:57 | -29.01753 | 167.53103 | 6168 ft | 221 kts | 65° |
| 2026-05-04 02:57 | -29.01115 | 167.54701 | 6160 ft | 221 kts | 66° |
| 2026-05-04 02:58 | -29.00489 | 167.56302 | 6173 ft | 219 kts | 66° |
| 2026-05-04 02:58 | -28.99912 | 167.57804 | 6151 ft | 194 kts | 66° |
| 2026-05-04 02:58 | -28.99402 | 167.59141 | 6030 ft | 176 kts | 67° |
| 2026-05-04 02:58 | -28.98906 | 167.60447 | 5335 ft | 184 kts | 67° |
| 2026-05-04 02:59 | -28.98389 | 167.61817 | 4656 ft | 191 kts | 66° |
| 2026-05-04 02:59 | -28.97867 | 167.63205 | 3944 ft | 196 kts | 67° |
| 2026-05-04 02:59 | -28.97334 | 167.64625 | 3381 ft | 193 kts | 67° |
| 2026-05-04 02:59 | -28.96805 | 167.66032 | 2896 ft | 195 kts | 67° |
| 2026-05-04 03:00 | -28.96289 | 167.67409 | 2486 ft | 185 kts | 67° |
| 2026-05-04 03:00 | -28.95807 | 167.68692 | 2332 ft | 165 kts | 69° |
| 2026-05-04 03:00 | -28.95383 | 167.69815 | 2296 ft | 143 kts | 68° |
| 2026-05-04 03:00 | -28.94981 | 167.70895 | 2309 ft | 172 kts | 70° |
| 2026-05-04 03:01 | -28.94768 | 167.72351 | 2337 ft | 196 kts | 87° |
| 2026-05-04 03:01 | -28.94828 | 167.73978 | 2333 ft | 214 kts | 92° |
| 2026-05-04 03:01 | -28.94937 | 167.75722 | 2302 ft | 220 kts | 92° |
| 2026-05-04 03:01 | -28.95194 | 167.77312 | 2275 ft | 189 kts | 104° |
| 2026-05-04 03:02 | -28.95700 | 167.78567 | 2270 ft | 164 kts | 112° |
| 2026-05-04 03:02 | -28.96282 | 167.79691 | 2062 ft | 173 kts | 114° |
| 2026-05-04 03:02 | -28.96893 | 167.80826 | 2006 ft | 159 kts | 115° |
| 2026-05-04 03:02 | -28.97499 | 167.81935 | 2001 ft | 169 kts | 116° |
| 2026-05-04 03:03 | -28.98127 | 167.83083 | 2001 ft | 173 kts | 116° |
| 2026-05-04 03:03 | -28.98751 | 167.84209 | 1972 ft | 157 kts | 116° |
| 2026-05-04 03:03 | -28.99293 | 167.85166 | 1990 ft | 139 kts | 115° |
| 2026-05-04 03:03 | -28.99796 | 167.86066 | 1985 ft | 119 kts | 114° |
| 2026-05-04 03:04 | -29.00237 | 167.86773 | 1706 ft | 106 kts | 117° |
| 2026-05-04 03:04 | -29.00651 | 167.87372 | 1495 ft | 88 kts | 119° |
| 2026-05-04 03:04 | -29.01046 | 167.87986 | 1449 ft | 95 kts | 114° |
| 2026-05-04 03:04 | -29.01369 | 167.88624 | 1510 ft | 89 kts | 104° |
| 2026-05-04 03:05 | -29.01611 | 167.89313 | 1455 ft | 95 kts | 106° |
| 2026-05-04 03:05 | -29.01930 | 167.89943 | 1298 ft | 97 kts | 112° |
| 2026-05-04 03:05 | -29.02303 | 167.90623 | 1200 ft | 100 kts | 115° |
| 2026-05-04 03:05 | -29.02660 | 167.91259 | 963 ft | 92 kts | 118° |
| 2026-05-04 03:06 | -29.03048 | 167.91905 | 746 ft | 104 kts | 119° |
| 2026-05-04 03:06 | -29.03474 | 167.92600 | 611 ft | 101 kts | 118° |
| 2026-05-04 03:06 | -29.04044 | 167.93171 | 1057 ft | 132 kts | 130° |
| 2026-05-04 03:06 | -29.04746 | 167.94087 | 1454 ft | 172 kts | 122° |
| 2026-05-04 03:07 | -29.05539 | 167.95221 | 2014 ft | 195 kts | 118° |
| 2026-05-04 03:07 | -29.06409 | 167.96505 | 2547 ft | 221 kts | 123° |
| 2026-05-04 03:07 | -29.07578 | 167.97792 | 2302 ft | 237 kts | 147° |
| 2026-05-04 03:07 | -29.09188 | 167.97888 | 2163 ft | 239 kts | 194° |
| 2026-05-04 03:08 | -29.10401 | 167.96656 | 2069 ft | 248 kts | 240° |
| 2026-05-04 03:08 | -29.10721 | 167.94718 | 2307 ft | 251 kts | 276° |
| 2026-05-04 03:08 | -29.10258 | 167.92881 | 2504 ft | 232 kts | 303° |
| 2026-05-04 03:08 | -29.09317 | 167.91391 | 2351 ft | 236 kts | 317° |
| 2026-05-04 03:09 | -29.08176 | 167.89977 | 2172 ft | 242 kts | 317° |
| 2026-05-04 03:09 | -29.07082 | 167.88598 | 2169 ft | 224 kts | 318° |
| 2026-05-04 03:09 | -29.06116 | 167.87322 | 2164 ft | 197 kts | 316° |
| 2026-05-04 03:09 | -29.05393 | 167.86114 | 2185 ft | 178 kts | 301° |
| 2026-05-04 03:10 | -29.04941 | 167.84874 | 2073 ft | 163 kts | 297° |
| 2026-05-04 03:10 | -29.04490 | 167.83596 | 2273 ft | 180 kts | 297° |
| 2026-05-04 03:10 | -29.03858 | 167.82490 | 2107 ft | 153 kts | 338° |
| 2026-05-04 03:10 | -29.03005 | 167.82341 | 1992 ft | 106 kts | 39° |
| 2026-05-04 03:11 | -29.02563 | 167.82968 | 2142 ft | 112 kts | 62° |
| 2026-05-04 03:11 | -29.02112 | 167.83793 | 2167 ft | 116 kts | 62° |
| 2026-05-04 03:11 | -29.01698 | 167.84494 | 1964 ft | 97 kts | 62° |
| 2026-05-04 03:11 | -29.01339 | 167.85112 | 1792 ft | 92 kts | 62° |
| 2026-05-04 03:12 | -29.01015 | 167.85756 | 1648 ft | 96 kts | 66° |
| 2026-05-04 03:12 | -29.00703 | 167.86457 | 1596 ft | 102 kts | 70° |
| 2026-05-04 03:12 | -29.00513 | 167.87216 | 1591 ft | 99 kts | 87° |
| 2026-05-04 03:12 | -29.00730 | 167.87978 | 1606 ft | 105 kts | 109° |
| 2026-05-04 03:13 | -29.01141 | 167.88659 | 1474 ft | 106 kts | 118° |
| 2026-05-04 03:13 | -29.01596 | 167.89329 | 1314 ft | 106 kts | 116° |
| 2026-05-04 03:13 | -29.02022 | 167.90015 | 1205 ft | 105 kts | 114° |
| 2026-05-04 03:13 | -29.02364 | 167.90726 | 978 ft | 98 kts | 114° |
| 2026-05-04 03:14 | -29.02749 | 167.91348 | 813 ft | 95 kts | 118° |
| 2026-05-04 03:14 | -29.03115 | 167.91997 | 654 ft | 94 kts | 116° |
| 2026-05-04 03:14 | -29.03476 | 167.92624 | 565 ft | 93 kts | 114° |
| 2026-05-04 03:14 | -29.03791 | 167.93242 | 416 ft | 89 kts | 115° |
| 2026-05-04 03:15 | -29.04184 | 167.93963 | 678 ft | 129 kts | 115° |
| 2026-05-04 03:15 | -29.04720 | 167.94995 | 1138 ft | 165 kts | 116° |
| 2026-05-04 03:15 | -29.05313 | 167.96228 | 1783 ft | 185 kts | 118° |
| 2026-05-04 03:15 | -29.06419 | 167.97087 | 2035 ft | 218 kts | 161° |
| 2026-05-04 03:16 | -29.07997 | 167.96736 | 2645 ft | 254 kts | 204° |
| 2026-05-04 03:16 | -29.09295 | 167.95278 | 2966 ft | 282 kts | 232° |
| 2026-05-04 03:16 | -29.10250 | 167.93291 | 2804 ft | 270 kts | 251° |
| 2026-05-04 03:16 | -29.10390 | 167.91319 | 2739 ft | 236 kts | 283° |
| 2026-05-04 03:17 | -29.09737 | 167.89690 | 2751 ft | 222 kts | 314° |
| 2026-05-04 03:17 | -29.08757 | 167.88316 | 2852 ft | 229 kts | 316° |
| 2026-05-04 03:17 | -29.07685 | 167.86950 | 2838 ft | 232 kts | 321° |
| 2026-05-04 03:17 | -29.06509 | 167.85695 | 2858 ft | 232 kts | 323° |
| 2026-05-04 03:18 | -29.05411 | 167.84340 | 2842 ft | 238 kts | 308° |
| 2026-05-04 03:18 | -29.04459 | 167.82765 | 2661 ft | 239 kts | 317° |
| 2026-05-04 03:18 | -29.03211 | 167.81637 | 2607 ft | 218 kts | 343° |
| 2026-05-04 03:18 | -29.01826 | 167.81375 | 2300 ft | 193 kts | 17° |
| 2026-05-04 03:19 | -29.00708 | 167.81965 | 2071 ft | 175 kts | 47° |
| 2026-05-04 03:19 | -29.00068 | 167.83086 | 1817 ft | 173 kts | 73° |
| 2026-05-04 03:19 | -28.99879 | 167.84409 | 1744 ft | 165 kts | 81° |
| 2026-05-04 03:19 | -28.99738 | 167.85609 | 1898 ft | 132 kts | 88° |
| 2026-05-04 03:20 | -29.00046 | 167.86589 | 2009 ft | 145 kts | 117° |
| 2026-05-04 03:20 | -29.00610 | 167.87507 | 1971 ft | 136 kts | 118° |
| 2026-05-04 03:20 | -29.01130 | 167.88395 | 1693 ft | 131 kts | 115° |
| 2026-05-04 03:20 | -29.01600 | 167.89242 | 1429 ft | 121 kts | 115° |
| 2026-05-04 03:21 | -29.02036 | 167.90022 | 1124 ft | 112 kts | 117° |
| 2026-05-04 03:21 | -29.02454 | 167.90795 | 836 ft | 116 kts | 116° |
| 2026-05-04 03:21 | -29.02863 | 167.91554 | 665 ft | 112 kts | 118° |
| 2026-05-04 03:21 | -29.03316 | 167.92319 | 593 ft | 125 kts | 126° |
| 2026-05-04 03:22 | -29.03723 | 167.93082 | 753 ft | 108 kts | 83° |
| 2026-05-04 03:22 | -29.03251 | 167.93643 | 778 ft | 132 kts | 3° |
| 2026-05-04 03:22 | -29.02345 | 167.92946 | 743 ft | 177 kts | 299° |
| 2026-05-04 03:22 | -29.01786 | 167.91736 | 799 ft | 170 kts | 275° |
| 2026-05-04 03:23 | -29.02070 | 167.90637 | 885 ft | 142 kts | 205° |
| 2026-05-04 03:23 | -29.02814 | 167.90645 | 744 ft | 117 kts | 111° |
| 2026-05-04 03:23 | -29.02685 | 167.91492 | 867 ft | 132 kts | 43° |
| 2026-05-04 03:23 | -29.01855 | 167.92003 | 1012 ft | 147 kts | 25° |
| 2026-05-04 03:24 | -29.00835 | 167.92296 | 1424 ft | 153 kts | 8° |
| 2026-05-04 03:24 | -28.99849 | 167.91839 | 1609 ft | 166 kts | 326° |
| 2026-05-04 03:24 | -28.99194 | 167.90793 | 1429 ft | 163 kts | 298° |
| 2026-05-04 03:24 | -28.98986 | 167.89541 | 1279 ft | 157 kts | 269° |
| 2026-05-04 03:25 | -28.99374 | 167.88425 | 1353 ft | 151 kts | 215° |
| 2026-05-04 03:25 | -29.00265 | 167.88083 | 1464 ft | 135 kts | 150° |
| 2026-05-04 03:25 | -29.01090 | 167.88682 | 1382 ft | 150 kts | 127° |
| 2026-05-04 03:25 | -29.01710 | 167.89568 | 1241 ft | 131 kts | 116° |
| 2026-05-04 03:26 | -29.02132 | 167.90387 | 1071 ft | 106 kts | 114° |
| 2026-05-04 03:26 | -29.02564 | 167.91160 | 870 ft | 128 kts | 118° |
| 2026-05-04 03:26 | -29.03073 | 167.92016 | 655 ft | 132 kts | 118° |
| 2026-05-04 03:26 | -29.03558 | 167.92859 | 423 ft | 123 kts | 119° |
| 2026-05-04 03:27 | -29.03986 | 167.93590 | 359 ft | 97 kts | 117° |
| 2026-05-04 03:27 | -29.04258 | 167.94091 | 360 ft | 29 kts | 124° |
| 2026-05-04 03:27 | -29.04288 | 167.94138 | 359 ft | 3 kts | 114° |
| 2026-05-04 03:27 | -29.04287 | 167.94134 | 359 ft | 1 kts | 114° |
| 2026-05-04 03:28 | -29.04302 | 167.94166 | 363 ft | 4 kts | 127° |
| 2026-05-04 03:28 | -29.04327 | 167.94188 | 366 ft | 7 kts | 139° |
| 2026-05-04 03:28 | -29.04327 | 167.94200 | 364 ft | 1 kts | 4° |
| 2026-05-04 03:28 | -29.04290 | 167.94142 | 359 ft | 12 kts | 304° |
| 2026-05-04 03:29 | -29.04263 | 167.94096 | 360 ft | 4 kts | 307° |
| 2026-05-04 03:29 | -29.04215 | 167.94020 | 358 ft | 12 kts | 329° |
| 2026-05-04 03:29 | -29.04155 | 167.94024 | 360 ft | 18 kts | 13° |
| 2026-05-04 03:29 | -29.04086 | 167.94095 | 361 ft | 15 kts | 49° |
| 2026-05-04 03:30 | -29.04011 | 167.94194 | 366 ft | 17 kts | 48° |
| 2026-05-04 03:30 | -29.03949 | 167.94265 | 370 ft | 10 kts | 38° |
| 2026-05-04 03:30 | -29.03893 | 167.94312 | 369 ft | 6 kts | 17° |
| 2026-05-04 03:30 | -29.03847 | 167.94321 | 370 ft | 6 kts | 12° |
| 2026-05-04 03:31 | -29.03800 | 167.94333 | 371 ft | 9 kts | 12° |
| 2026-05-04 03:31 | -29.03735 | 167.94347 | 372 ft | 10 kts | 13° |
| 2026-05-04 03:31 | -29.03665 | 167.94365 | 372 ft | 4 kts | 9° |
| 2026-05-04 03:31 | -29.03637 | 167.94363 | 372 ft | 7 kts | 328° |
| 2026-05-04 03:32 | -29.03605 | 167.94336 | 371 ft | 7 kts | 311° |
| 2026-05-04 03:32 | -29.03597 | 167.94317 | 371 ft | 0 kts | 282° |
| 2026-05-04 03:32 | -29.03597 | 167.94320 | 371 ft | 1 kts | 304° |
| 2026-05-04 03:32 | -29.03581 | 167.94313 | 371 ft | 2 kts | 21° |
| 2026-05-04 03:33 | -29.03575 | 167.94317 | 370 ft | 2 kts | 33° |
| 2026-05-04 03:33 | -29.03567 | 167.94332 | 371 ft | 2 kts | 81° |
| 2026-05-04 03:33 | -29.03566 | 167.94334 | 371 ft | 0 kts | 77° |
| 2026-05-04 03:37 | -29.03567 | 167.94332 | 371 ft | 0 kts | 77° |